Samoa, California
Current Conditions -  °F | °C
As of 1:45 AM on Thursday 23 Oct 2014 (Local Time) from KACV Reporting Station
Light Rain Light Rain  
Wind Chill: 60°   Ceiling: 9500
Heat Index: 60°   Visibility: 7mi
Dew Point: 57°   Wind: 26mph
Humidity: 90%   Direction: 120°ESE
Pressure: 29.83"   Gusts: 39mph
Location:  40.82°N, 124.19°W
Report Text: KACV 230845Z AUTO 12023G34KT 7SM -RA SCT031 OVC095 16/14 A2983 RMK AO2 PK WND 12034/0843 PRESFR P0050 T01560139
Loading
Personal Weather Stations






























Interactive Weather Map
Tropical Storm Tracking
New forecast layout! Learn more

10-Day Weather Forecast

Advertisements
Track Severe Weather on mobile